Terminal Aerodrome Forecast
Issued by NWS Jackson, MS

Home | Current Version | Previous Version | Text Only | Print | Product List | Glossary On
Versions: 1 2 3 4 5 6 7 8 9 10 11 12 13
000
FTUS44 KMEG 161500 AAA
TAFTUP
TAF AMD
KTUP 161502Z 1615/1712 34003KT P6SM SCT150
     FM161800 02005KT P6SM BKN040
     FM170000 02003KT P6SM SCT025 BKN100
      TEMPO 1708/1712 3SM BR=

USA.gov is the U.S. government's official web portal to all federal, state and local government web resources and services.